createdAt,value
2019-01-02T00:01:48.829Z,74.10
2019-01-02T00:04:36.337Z,76.20
2019-01-02T00:07:07.483Z,74.50
2019-01-02T00:09:35.154Z,74.40
2019-01-02T00:12:26.432Z,73.70
2019-01-02T00:14:56.586Z,72.40
2019-01-02T00:17:29.301Z,74.50
2019-01-02T00:20:16.326Z,73.30
2019-01-02T00:22:44.555Z,71.60
2019-01-02T00:25:16.618Z,72.10
2019-01-02T00:27:59.140Z,71.90
2019-01-02T00:30:27.097Z,73.00
2019-01-02T00:32:55.287Z,71.50
2019-01-02T00:35:22.843Z,72.30
2019-01-02T00:37:51.434Z,70.00
2019-01-02T00:40:19.461Z,68.60
2019-01-02T00:42:59.799Z,70.00
2019-01-02T00:45:29.709Z,70.60
2019-01-02T00:47:57.984Z,72.80
2019-01-02T00:50:25.998Z,71.10
2019-01-02T00:52:58.843Z,71.90
2019-01-02T00:55:27.294Z,71.80
2019-01-02T00:58:18.223Z,73.30
2019-01-02T01:00:47.418Z,73.30
2019-01-02T01:03:16.681Z,71.50
2019-01-02T01:05:45.390Z,72.40
2019-01-02T01:08:16.912Z,71.80
2019-01-02T01:10:49.703Z,70.00
2019-01-02T01:13:18.833Z,71.70
2019-01-02T01:15:49.072Z,70.80
2019-01-02T01:18:29.787Z,71.10
2019-01-02T01:20:59.086Z,69.90
2019-01-02T01:23:26.677Z,70.30
2019-01-02T01:25:59.243Z,71.60
2019-01-02T01:28:32.267Z,72.40
2019-01-02T01:33:50.181Z,72.20
2019-01-02T01:36:18.272Z,71.40
2019-01-02T01:38:47.086Z,69.50
2019-01-02T01:41:14.835Z,69.30
2019-01-02T01:43:42.454Z,68.70
2019-01-02T01:46:10.279Z,68.30
2019-01-02T01:48:40.429Z,67.50
2019-01-02T01:51:10.264Z,68.30
2019-01-02T01:53:38.728Z,69.80
2019-01-02T01:56:07.447Z,68.60
2019-01-02T01:58:36.200Z,68.50
2019-01-02T02:01:05.372Z,70.00
2019-01-02T02:03:36.223Z,70.90
2019-01-02T02:06:04.130Z,69.10
2019-01-02T02:08:35.511Z,69.80
2019-01-02T02:11:06.271Z,69.60
2019-01-02T02:13:35.025Z,68.80
2019-01-02T02:16:07.399Z,69.30
2019-01-02T02:18:35.172Z,69.40
2019-01-02T02:21:04.199Z,69.70
2019-01-02T02:23:32.147Z,69.70
2019-01-02T02:25:59.797Z,70.40
2019-01-02T02:28:27.839Z,70.90
2019-01-02T02:30:56.031Z,71.50
2019-01-02T02:33:24.148Z,71.70
2019-01-02T02:35:53.276Z,71.10
2019-01-02T02:38:26.776Z,71.60
2019-01-02T02:40:55.154Z,71.50
2019-01-02T02:43:27.750Z,73.20
2019-01-02T02:45:57.816Z,70.70
2019-01-02T02:48:25.812Z,73.00
2019-01-02T02:50:54.421Z,71.80
2019-01-02T02:53:23.575Z,69.00
2019-01-02T02:55:53.115Z,70.50
2019-01-02T02:58:21.279Z,70.10
2019-01-02T03:00:49.736Z,70.70
2019-01-02T03:03:21.100Z,69.40
2019-01-02T03:05:54.398Z,70.20
2019-01-02T03:08:23.207Z,70.90
2019-01-02T03:10:54.031Z,72.10
2019-01-02T03:13:22.006Z,71.90
2019-01-02T03:15:58.506Z,72.90
2019-01-02T03:18:27.178Z,72.90
2019-01-02T03:20:56.873Z,72.30
2019-01-02T03:23:28.499Z,72.50
2019-01-02T03:25:59.234Z,71.50
2019-01-02T03:28:27.744Z,71.90
2019-01-02T03:30:57.028Z,71.70
2019-01-02T03:33:24.882Z,71.70
2019-01-02T03:35:52.263Z,71.20
2019-01-02T03:38:20.259Z,71.60
2019-01-02T03:40:53.920Z,71.10
2019-01-02T03:43:22.208Z,70.00
2019-01-02T03:45:49.838Z,72.00
2019-01-02T03:48:18.958Z,71.80
2019-01-02T03:50:46.514Z,70.90
2019-01-02T03:53:14.211Z,69.40
2019-01-02T03:55:42.091Z,70.70
2019-01-02T03:58:11.595Z,70.50
2019-01-02T04:00:39.932Z,69.40
2019-01-02T04:03:07.378Z,69.40
2019-01-02T04:05:37.738Z,69.70
2019-01-02T04:08:08.262Z,68.50
2019-01-02T04:10:35.918Z,70.00
2019-01-02T04:13:06.455Z,70.50
2019-01-02T04:15:34.008Z,70.60
2019-01-02T04:18:04.182Z,70.40
2019-01-02T04:20:32.402Z,70.30
2019-01-02T04:23:00.186Z,69.10
2019-01-02T04:25:33.745Z,69.30
2019-01-02T04:28:10.015Z,71.10
2019-01-02T04:30:35.152Z,70.80
2019-01-02T04:33:03.207Z,70.70
2019-01-02T04:35:31.167Z,71.20
2019-01-02T04:37:59.866Z,70.70
2019-01-02T04:40:38.690Z,68.90
2019-01-02T04:43:06.280Z,68.70
2019-01-02T04:45:34.023Z,70.20
2019-01-02T04:48:02.701Z,68.90
2019-01-02T04:50:31.079Z,71.20
2019-01-02T04:52:59.548Z,71.30
2019-01-02T04:55:30.285Z,72.70
2019-01-02T04:57:58.744Z,72.00
2019-01-02T05:00:27.248Z,72.70
2019-01-02T05:02:55.134Z,73.40
2019-01-02T05:08:18.998Z,69.80
2019-01-02T05:10:47.083Z,71.10
2019-01-02T05:13:14.768Z,71.30
2019-01-02T05:15:42.599Z,71.10
2019-01-02T05:18:10.480Z,70.20
2019-01-02T05:20:40.912Z,70.10
2019-01-02T05:23:23.055Z,71.70
2019-01-02T05:26:06.983Z,72.10
2019-01-02T05:28:35.540Z,71.70
2019-01-02T05:31:03.754Z,72.90
2019-01-02T05:33:32.252Z,71.40
2019-01-02T05:36:00.549Z,71.00
2019-01-02T05:38:28.125Z,70.70
2019-01-02T05:40:57.339Z,70.20
2019-01-02T05:43:25.066Z,70.90
2019-01-02T05:45:58.161Z,70.80
2019-01-02T05:48:26.412Z,71.50
2019-01-02T05:50:55.429Z,72.90
2019-01-02T05:53:23.269Z,73.00
2019-01-02T05:55:50.992Z,73.20
2019-01-02T05:58:19.270Z,72.60
2019-01-02T06:00:48.634Z,72.80
2019-01-02T06:03:18.526Z,73.00
2019-01-02T06:05:46.280Z,72.80
2019-01-02T06:08:15.195Z,72.00
2019-01-02T06:10:42.791Z,71.60
2019-01-02T06:13:10.645Z,73.70
2019-01-02T06:15:39.140Z,74.70
2019-01-02T06:18:07.266Z,73.20
2019-01-02T06:20:35.694Z,74.90
2019-01-02T06:23:03.748Z,74.50
2019-01-02T06:25:33.571Z,74.50
2019-01-02T06:28:02.006Z,74.90
2019-01-02T06:30:29.984Z,75.90
2019-01-02T06:32:58.669Z,75.10
2019-01-02T06:35:26.946Z,74.40
2019-01-02T06:37:56.578Z,74.80
2019-01-02T06:40:27.016Z,72.80
2019-01-02T06:42:59.349Z,72.20
2019-01-02T06:45:27.994Z,71.80
2019-01-02T06:47:55.592Z,71.70
2019-01-02T06:50:25.377Z,72.40
2019-01-02T06:52:52.954Z,71.10
2019-01-02T06:55:20.693Z,71.40
2019-01-02T06:57:48.506Z,72.00
2019-01-02T07:00:28.990Z,69.30
2019-01-02T07:02:56.533Z,70.30
2019-01-02T07:05:25.324Z,70.30
2019-01-02T07:07:53.201Z,69.70
2019-01-02T07:10:21.042Z,71.40
2019-01-02T07:12:48.526Z,71.40
2019-01-02T07:15:16.551Z,71.90
2019-01-02T07:17:44.146Z,71.00
2019-01-02T07:20:11.867Z,72.90
2019-01-02T07:22:39.469Z,72.30
2019-01-02T07:25:15.283Z,73.00
2019-01-02T07:27:45.519Z,72.80
2019-01-02T07:30:16.417Z,71.50
2019-01-02T07:32:44.413Z,71.90
2019-01-02T07:36:05.802Z,72.40
2019-01-02T07:39:19.663Z,70.70
2019-01-02T07:42:26.087Z,71.40
2019-01-02T07:45:21.742Z,71.10
2019-01-02T07:48:45.484Z,70.30
2019-01-02T07:51:45.133Z,70.30
2019-01-02T07:54:40.564Z,71.40
2019-01-02T07:57:51.754Z,71.90
2019-01-02T08:01:07.408Z,74.10
2019-01-02T08:04:03.036Z,75.60
2019-01-02T08:07:13.899Z,76.80
2019-01-02T08:10:35.237Z,79.00
2019-01-02T08:13:43.127Z,79.20
2019-01-02T08:16:47.404Z,78.70
2019-01-02T08:20:07.842Z,79.80
2019-01-02T08:23:38.210Z,79.50
2019-01-02T08:26:53.425Z,81.70
2019-01-02T08:29:59.950Z,80.20
2019-01-02T08:33:03.212Z,81.30
2019-01-02T08:36:05.274Z,83.40
2019-01-02T08:39:27.292Z,83.40
2019-01-02T08:42:39.598Z,79.80
2019-01-02T08:45:46.721Z,79.90
2019-01-02T08:48:50.999Z,79.50
2019-01-02T08:51:40.418Z,77.60
2019-01-02T08:54:35.073Z,79.20
2019-01-02T08:57:48.194Z,82.00
2019-01-02T09:00:44.233Z,85.50
2019-01-02T09:03:41.878Z,86.60
2019-01-02T09:06:51.433Z,84.00
2019-01-02T09:10:12.760Z,82.50
2019-01-02T09:13:36.458Z,78.30
2019-01-02T09:16:35.788Z,76.50
2019-01-02T09:19:53.600Z,76.60
2019-01-02T09:22:59.122Z,76.50
2019-01-02T09:25:59.933Z,74.50
2019-01-02T09:29:03.549Z,72.00
2019-01-02T09:32:04.109Z,73.80
2019-01-02T09:35:27.351Z,70.90
2019-01-02T09:38:24.335Z,70.40
2019-01-02T09:41:40.662Z,68.50
2019-01-02T09:44:49.366Z,69.00
2019-01-02T09:48:03.749Z,66.80
2019-01-02T09:51:07.451Z,65.70
2019-01-02T09:54:14.276Z,65.80
2019-01-02T09:57:30.810Z,68.30
2019-01-02T10:00:36.646Z,69.20
2019-01-02T10:03:43.157Z,67.60
2019-01-02T10:06:40.331Z,69.70
2019-01-02T10:09:41.902Z,69.10
2019-01-02T10:12:51.592Z,70.30
2019-01-02T10:15:55.878Z,70.00
2019-01-02T10:19:00.999Z,68.00
2019-01-02T10:22:01.727Z,66.90
2019-01-02T10:25:06.980Z,68.10
2019-01-02T10:27:59.758Z,67.20
2019-01-02T10:31:23.006Z,68.10
2019-01-02T10:34:20.865Z,68.50
2019-01-02T10:37:39.995Z,69.20
2019-01-02T10:40:43.031Z,67.50
2019-01-02T10:43:43.332Z,66.20
2019-01-02T10:46:45.750Z,66.60
2019-01-02T10:49:37.588Z,68.50
2019-01-02T10:52:41.220Z,66.70
2019-01-02T10:56:12.275Z,67.90
2019-01-02T10:59:19.463Z,69.20
2019-01-02T11:02:31.407Z,69.40
2019-01-02T11:05:42.800Z,73.80
2019-01-02T11:09:01.172Z,70.70
2019-01-02T11:12:25.351Z,70.40
2019-01-02T11:15:33.914Z,68.60
2019-01-02T11:18:46.114Z,65.30
2019-01-02T11:21:51.724Z,68.30
2019-01-02T11:25:19.427Z,64.40
2019-01-02T11:28:47.257Z,65.30
2019-01-02T11:31:58.221Z,65.60
2019-01-02T11:35:00.973Z,61.60
2019-01-02T11:38:21.574Z,62.90
2019-01-02T11:44:50.288Z,58.70
2019-01-02T11:47:21.426Z,59.20
2019-01-02T11:52:40.402Z,55.90
2019-01-02T11:55:27.540Z,55.00
2019-01-02T11:58:03.294Z,53.50
2019-01-02T12:00:34.838Z,53.60
2019-01-02T12:03:02.610Z,52.20
2019-01-02T12:05:32.002Z,51.30
2019-01-02T12:08:10.012Z,48.60
2019-01-02T12:10:39.916Z,49.30
2019-01-02T12:13:08.104Z,47.30
2019-01-02T12:15:36.533Z,46.40
2019-01-02T12:18:04.123Z,45.80
2019-01-02T12:20:43.907Z,45.20
2019-01-02T12:23:13.591Z,50.20
2019-01-02T12:25:42.380Z,50.00
2019-01-02T12:28:10.842Z,49.90
2019-01-02T12:30:38.423Z,52.20
2019-01-02T12:33:07.420Z,52.10
2019-01-02T12:35:35.296Z,52.20
2019-01-02T12:38:03.312Z,52.00
2019-01-02T12:40:33.224Z,50.40
2019-01-02T12:43:01.013Z,50.40
2019-01-02T12:45:28.725Z,48.10
2019-01-02T12:48:15.978Z,49.80
2019-01-02T12:50:45.107Z,48.10
2019-01-02T12:53:16.158Z,46.70
2019-01-02T12:55:47.716Z,47.80
2019-01-02T12:58:29.154Z,44.50
2019-01-02T13:01:04.558Z,41.50
2019-01-02T13:04:01.968Z,39.80
2019-01-02T13:07:10.266Z,40.80
2019-01-02T13:13:00.722Z,41.60
2019-01-02T13:16:28.463Z,41.50
2019-01-02T13:19:29.533Z,40.50
2019-01-02T13:22:46.193Z,39.70
2019-01-02T13:25:40.030Z,39.80
2019-01-02T13:28:50.323Z,40.00
2019-01-02T13:31:57.667Z,39.80
2019-01-02T13:35:00.708Z,38.80
2019-01-02T13:37:56.315Z,38.00
2019-01-02T13:41:06.373Z,35.50
2019-01-02T13:44:01.451Z,35.40
2019-01-02T13:47:33.319Z,35.40
2019-01-02T13:50:39.481Z,34.20
2019-01-02T13:53:11.045Z,34.30
2019-01-02T13:55:41.573Z,35.50
2019-01-02T13:58:12.132Z,34.80
2019-01-02T14:00:39.617Z,36.80
2019-01-02T14:03:07.707Z,36.30
2019-01-02T14:05:40.143Z,37.20
2019-01-02T14:08:09.511Z,38.30
2019-01-02T14:10:44.370Z,38.40
2019-01-02T14:13:12.172Z,38.30
2019-01-02T14:15:40.662Z,37.90
2019-01-02T14:18:09.336Z,37.10
2019-01-02T14:20:37.190Z,37.00
2019-01-02T14:23:04.682Z,36.30
2019-01-02T14:25:32.215Z,35.60
2019-01-02T14:28:08.386Z,36.80
2019-01-02T14:30:36.248Z,36.30
2019-01-02T14:33:03.751Z,36.40
2019-01-02T14:35:31.501Z,36.90
2019-01-02T14:38:05.158Z,36.90
2019-01-02T14:40:32.781Z,37.70
2019-01-02T14:43:00.726Z,36.40
2019-01-02T14:45:32.853Z,36.30
2019-01-02T14:48:01.336Z,36.60
2019-01-02T14:50:36.226Z,36.90
2019-01-02T14:53:24.617Z,36.90
2019-01-02T14:55:52.827Z,36.60
2019-01-02T14:58:21.291Z,37.80
2019-01-02T15:00:49.137Z,37.10
2019-01-02T15:03:24.838Z,37.30
2019-01-02T15:05:53.501Z,37.70
2019-01-02T15:08:26.699Z,37.30
2019-01-02T15:10:54.380Z,38.70
2019-01-02T15:13:22.263Z,38.10
2019-01-02T15:15:50.930Z,38.60
2019-01-02T15:18:18.927Z,38.10
2019-01-02T15:20:46.836Z,37.50
2019-01-02T15:23:16.331Z,38.30
2019-01-02T15:25:44.655Z,38.00
2019-01-02T15:31:00.964Z,38.80
2019-01-02T15:33:28.586Z,39.10
2019-01-02T15:35:58.546Z,38.80
2019-01-02T15:38:29.236Z,37.70
2019-01-02T15:40:57.736Z,37.70
2019-01-02T15:43:25.455Z,37.90
2019-01-02T15:45:53.198Z,37.30
2019-01-02T15:48:21.570Z,36.70
2019-01-02T15:50:56.324Z,37.10
2019-01-02T15:53:24.630Z,37.40
2019-01-02T15:55:52.428Z,38.60
2019-01-02T15:58:20.005Z,38.20
2019-01-02T16:00:48.195Z,38.40
2019-01-02T16:03:16.356Z,37.80
2019-01-02T16:05:43.817Z,38.90
2019-01-02T16:08:11.933Z,39.20
2019-01-02T16:10:39.797Z,38.90
2019-01-02T16:13:11.390Z,37.30
2019-01-02T16:15:39.361Z,38.30
2019-01-02T16:18:08.191Z,39.80
2019-01-02T16:20:35.850Z,37.70
2019-01-02T16:23:04.529Z,39.20
2019-01-02T16:25:32.682Z,38.20
2019-01-02T16:28:01.114Z,38.80
2019-01-02T16:30:29.044Z,38.70
2019-01-02T16:32:56.659Z,38.90
2019-01-02T16:35:24.161Z,37.90
2019-01-02T16:38:02.234Z,38.90
2019-01-02T16:40:30.231Z,37.70
2019-01-02T16:43:00.352Z,39.00
2019-01-02T16:45:28.419Z,38.20
2019-01-02T16:47:56.186Z,38.50
2019-01-02T16:50:23.792Z,38.30
2019-01-02T16:52:51.281Z,38.10
2019-01-02T16:55:18.859Z,38.80
2019-01-02T16:57:46.701Z,39.30
2019-01-02T17:00:14.455Z,39.50
2019-01-02T17:02:42.207Z,39.40
2019-01-02T17:05:11.036Z,38.50
2019-01-02T17:07:38.640Z,40.00
2019-01-02T17:10:07.799Z,40.40
2019-01-02T17:12:37.612Z,39.00
2019-01-02T17:15:05.799Z,38.90
2019-01-02T17:17:34.946Z,39.30
2019-01-02T17:20:03.288Z,38.60
2019-01-02T17:22:30.800Z,38.50
2019-01-02T17:24:59.924Z,38.60
2019-01-02T17:27:27.772Z,38.60
2019-01-02T17:29:55.880Z,39.10
2019-01-02T17:32:23.581Z,39.00
2019-01-02T17:34:57.934Z,38.60
2019-01-02T17:37:25.523Z,38.30
2019-01-02T17:39:53.158Z,39.80
2019-01-02T17:42:29.293Z,39.80
2019-01-02T17:44:57.799Z,38.50
2019-01-02T17:47:26.188Z,39.00
2019-01-02T17:49:53.942Z,39.20
2019-01-02T17:52:24.655Z,40.80
2019-01-02T17:55:12.780Z,39.80
2019-01-02T17:57:52.128Z,38.90
2019-01-02T18:00:24.824Z,39.10
2019-01-02T18:02:53.232Z,39.50
2019-01-02T18:05:20.783Z,39.10
2019-01-02T18:07:48.524Z,40.00
2019-01-02T18:10:16.633Z,39.70
2019-01-02T18:12:44.260Z,39.60
2019-01-02T18:15:12.134Z,39.60
2019-01-02T18:17:39.626Z,40.10
2019-01-02T18:20:09.227Z,40.40
2019-01-02T18:22:38.118Z,40.80
2019-01-02T18:25:05.643Z,41.30
2019-01-02T18:27:39.226Z,40.70
2019-01-02T18:30:10.477Z,40.40
2019-01-02T18:32:38.158Z,40.40
2019-01-02T18:35:05.817Z,40.70
2019-01-02T18:37:55.983Z,39.90
2019-01-02T18:40:24.110Z,39.40
2019-01-02T18:42:52.434Z,40.00
2019-01-02T18:45:20.509Z,40.10
2019-01-02T18:47:49.132Z,39.60
2019-01-02T18:50:17.924Z,40.80
2019-01-02T18:52:50.202Z,39.30
2019-01-02T18:55:19.694Z,41.30
2019-01-02T18:57:49.443Z,40.80
2019-01-02T19:00:19.373Z,40.20
2019-01-02T19:02:52.616Z,40.80
2019-01-02T19:05:44.110Z,40.90
2019-01-02T19:08:13.167Z,41.10
2019-01-02T19:10:40.904Z,41.20
2019-01-02T19:13:16.805Z,42.10
2019-01-02T19:18:21.013Z,41.10
2019-01-02T19:21:33.349Z,40.90
2019-01-02T19:24:01.473Z,41.60
2019-01-02T19:26:35.081Z,41.60
2019-01-02T19:29:03.516Z,41.50
2019-01-02T19:31:49.978Z,41.60
2019-01-02T19:34:37.674Z,42.10
2019-01-02T19:37:20.053Z,41.10
2019-01-02T19:39:47.803Z,42.70
2019-01-02T19:42:15.730Z,41.50
2019-01-02T19:44:44.257Z,41.20
2019-01-02T19:47:12.134Z,42.20
2019-01-02T19:49:40.319Z,42.40
2019-01-02T19:52:11.556Z,41.30
2019-01-02T19:54:40.488Z,40.80
2019-01-02T19:57:08.115Z,41.30
2019-01-02T19:59:37.499Z,41.20
2019-01-02T20:02:07.033Z,42.10
2019-01-02T20:04:34.813Z,42.20
2019-01-02T20:07:02.424Z,43.80
2019-01-02T20:09:37.182Z,45.60
2019-01-02T20:12:05.952Z,45.80
2019-01-02T20:14:36.677Z,43.30
2019-01-02T20:17:04.588Z,43.90
2019-01-02T20:19:32.292Z,43.10
2019-01-02T20:22:02.727Z,43.10
2019-01-02T20:24:30.407Z,43.30
2019-01-02T20:26:58.870Z,43.10
2019-01-02T20:29:27.060Z,43.20
2019-01-02T20:31:55.014Z,42.90
2019-01-02T20:34:28.274Z,42.80
2019-01-02T20:42:15.447Z,44.20
2019-01-02T20:44:44.002Z,42.20
2019-01-02T20:47:11.795Z,42.30
2019-01-02T20:49:41.659Z,41.80
2019-01-02T20:57:37.380Z,41.10
2019-01-02T21:00:09.076Z,41.30
2019-01-02T21:02:45.575Z,41.00
2019-01-02T21:05:55.203Z,40.80
2019-01-02T21:08:24.286Z,42.30
2019-01-02T21:14:03.686Z,41.00
2019-01-02T21:23:02.601Z,40.30
2019-01-02T21:28:48.770Z,39.90
2019-01-02T21:37:09.163Z,41.00
2019-01-02T21:45:17.268Z,43.30
2019-01-02T21:50:37.026Z,43.50
2019-01-02T21:53:19.448Z,44.10
2019-01-02T21:56:00.190Z,45.40
2019-01-02T22:01:19.688Z,42.00
2019-01-02T22:03:53.992Z,41.80
2019-01-02T22:06:21.891Z,45.10
2019-01-02T22:11:30.087Z,46.90
2019-01-02T22:13:58.326Z,46.30
2019-01-02T22:16:27.600Z,48.60
2019-01-02T22:18:56.953Z,49.10
2019-01-02T22:21:25.073Z,49.90
2019-01-02T22:26:39.386Z,49.00
2019-01-02T22:29:07.289Z,50.10
2019-01-02T22:31:37.905Z,52.60
2019-01-02T22:34:10.939Z,50.80
2019-01-02T22:36:38.615Z,50.40
2019-01-02T22:39:27.897Z,50.80
2019-01-02T22:41:56.860Z,50.60
2019-01-02T22:44:43.119Z,50.00
2019-01-02T22:47:26.117Z,49.50
2019-01-02T22:49:55.691Z,48.80
2019-01-02T22:52:25.103Z,49.80
2019-01-02T22:54:54.004Z,51.10
2019-01-02T22:57:22.657Z,50.60
2019-01-02T22:59:50.308Z,51.80
2019-01-02T23:02:39.688Z,52.10
2019-01-02T23:05:33.595Z,52.70
2019-01-02T23:08:27.037Z,51.00
2019-01-02T23:11:15.998Z,53.10
2019-01-02T23:14:02.072Z,53.60
2019-01-02T23:16:47.505Z,52.80
2019-01-02T23:19:38.673Z,52.30
2019-01-02T23:22:24.768Z,54.40
2019-01-02T23:25:11.247Z,54.20
2019-01-02T23:27:59.246Z,55.10
2019-01-02T23:31:05.312Z,54.30
2019-01-02T23:34:07.792Z,54.90
2019-01-02T23:37:01.477Z,56.30
2019-01-02T23:39:52.384Z,57.10
2019-01-02T23:45:14.023Z,55.20
2019-01-02T23:48:08.256Z,57.90
2019-01-02T23:51:15.559Z,55.70
2019-01-02T23:54:07.542Z,55.80
2019-01-02T23:56:56.504Z,55.40
2019-01-02T23:59:46.597Z,57.70
